ZBAA METAR and TAF | Updated Today

ZBAA METAR

Beijing Capital International Airport

Observation time: 17 min. ago

ZBAA 011600Z 02003MPS CAVOK M03/M21 Q1035 NOSIG

Need help? Read our tutorial on how to read METARs or read the parsed version below.

Beijing Capital International Airport (ZBAA) METAR

  • Weather conditions on Wed, 01 Feb 2023 16:00:00 +0000 (17 min. ago):
  • Present conditions: Dry
  • Clouds: Clear skies
  • Visibility: Greater than 10 km
  • Wind: 20 degrees at 3 knots
  • Temperature: -3 celsius
  • Dew point: -21 celsius
  • Pressure: 1035 millibars
  • Remarks: None


Useful to know...

ZBAA TAF

Beijing Capital International Airport

TAF ZBAA 010901Z 0112/0212 36004MPS CAVOK TX04/0207Z TNM07/0121Z
Observation time: 7:16 hr. ago
Need help? Read our tutorial on how to read TAFs or read the parsed version below.

Parsed version of TAF for Beijing Capital International Airport (ZBAA)

  • From 01 February at 12:00 UTC, to day 02 of the month at 12:00 UTC
  • Visibility: Greater than 10 km
  • Wind: 360 degrees at 4

Airports near ZBAA

ZBAD Weather
Region: Beijing

Beijing Daxing International Airport

Not found in our database